サルタ の空港の天気 - METARとTAF

サルタ空港 ( SASA / SLA ) - アルゼンチン サルタ州、Salta
飛行場実況気象(Metar)
観測時間04/25 03:00 ART (04/25 06:00 UTC)
風向・風速北北西 2m/s
視程10km以上
天気現象
少しの雲 雲底高度 240m
全天の8割程度の雲 雲底高度 300m
気温19℃
湿度94%
気圧1019hPa
METARSASA 250600Z 34004KT 9999 FEW008 BKN010 19/18 Q1019
過去の天気等 Google飛行場航空写真 Wunderground天気予報

過去48時間のMETAR

飛行場予報(TAF)
発表時間: 4/25 02:00 ART (4/25 05:00 UTC)
予報対象時間: 25日3時 ART ~ 26日3時 ART
風向・風速北西 3m/s
視程10km以上
全天の4割程度の雲 雲底高度 300m
全天の8割程度の雲 雲底高度 610m
25日3時 ART ~ 25日7時 ART に 確率 40% で一時的に
風向・風速不定 2m/s
視程3,000m
天気現象霧雨 もや
全天の4割程度の雲 雲底高度 150m
全天の8割程度の雲 雲底高度 300m
25日7時 ART ~ 25日11時 ART に徐々に
風向・風速東 3m/s
視程8,000m
全天の4割程度の雲 雲底高度 460m
全天の8割程度の雲 雲底高度 610m
TAF SASA 250500Z 2506/2606 32005KT 9999 SCT010 BKN020 TX26/2519Z TN16/2511Z
PROB40 TEMPO 2506/2510 VRB03KT 3000 DZ BR SCT005 BKN010
BECMG 2510/2514 09005KT 8000 SCT015 BKN020